Skip Navigation Links Skip Navigation Links

Current Weather

Tete / Chingozi, Mozambique

For information only: do not use for flight planning or navigation.
Latest weather
Observation time Thursday, January 27, 2022 7:00 AM CAT
Local time Thursday, January 27, 2022 7:28 AM CAT
Flight conditions Marginal Visual Meteorological Conditions
Winds
Wind speed calm
Visibility 6.2 mi.
Sky condition
Ceiling 1,800 ft. broken clouds
Cloud layer broken clouds 1,800 ft.
Cloud layer broken clouds 9,000 ft.
Temperature 73°F
Dewpoint 73°F
Altimeter 29.85 in.Hg
Derived measurements
Relative humidity 100%
Density altitude 1544 ft.
METAR FQTT 270500Z 00000KT 9999 BKN018 BKN090 23/23 Q1011

Settings

Location code

InnerDrive.Weather 4.0.6770.0 Release CLR 4.0.30319.42000
Copyright ©2018 Inner Drive Technology. All rights reserved. Portions Copyright ©1986-2018 David Braverman.

Find weather

Site navigation


Skip Navigation Links

Place info

Page info

PayPal - The safer, easier way to pay online!

Return home.

Copyright ©2022 Inner Drive Technology. Purveyors of fine, hand-crafted computer software. Page printed 2022-01-27T05:28:05 UTC.